Time;durP1;ratioP1;P1;durP2;ratioP2;P2;SDS_P1;SDS_P2;PMS_P1;PMS_P2;Temp;Humidity;BMP_temperature;BMP_pressure;BME280_temperature;BME280_humidity;BME280_pressure;Samples;Min_cycle;Max_cycle;Signal;HPM_P1;HPM_P2
2022/11/01 00:01:51;;;;;;;8.23;2.90;;;;;;;;;;5091534;28;20066;-78
2022/11/01 00:04:17;;;;;;;11.23;3.13;;;;;;;;;;5091381;28;20502;-78
2022/11/01 00:06:42;;;;;;;9.75;2.80;;;;;;;;;;5091289;28;20032;-75
2022/11/01 00:09:08;;;;;;;7.10;2.60;;;;;;;;;;5073199;28;20111;-76
2022/11/01 00:11:34;;;;;;;10.73;3.13;;;;;;;;;;5091323;28;20028;-80
2022/11/01 00:13:59;;;;;;;12.27;2.95;;;;;;;;;;5091296;28;20039;-79
2022/11/01 00:16:25;;;;;;;11.30;3.25;;;;;;;;;;5073335;28;20031;-78
2022/11/01 00:18:51;;;;;;;8.15;2.92;;;;;;;;;;5090969;28;20084;-80
2022/11/01 00:21:17;;;;;;;8.57;2.70;;;;;;;;;;5091295;28;20020;-80
2022/11/01 00:23:43;;;;;;;9.13;3.00;;;;;;;;;;5091019;28;20415;-81
2022/11/01 00:26:13;;;;;;;11.13;3.03;;;;;;;;;;5091289;28;20032;-80
2022/11/01 00:28:39;;;;;;;9.32;3.10;;;;;;;;;;5072465;28;20110;-80
2022/11/01 00:31:04;;;;;;;9.63;2.97;;;;;;;;;;5073019;28;20083;-79
2022/11/01 00:33:30;;;;;;;12.13;2.70;;;;;;;;;;5090575;28;20035;-80
2022/11/01 00:35:59;;;;;;;7.40;2.35;;;;;;;;;;5091030;28;20027;-80
2022/11/01 00:38:25;;;;;;;7.55;2.30;;;;;;;;;;5090632;28;20024;-78
2022/11/01 00:40:50;;;;;;;6.53;2.10;;;;;;;;;;5089553;28;20016;-78
2022/11/01 00:43:15;;;;;;;7.40;2.10;;;;;;;;;;5090519;28;20024;-79
2022/11/01 00:45:45;;;;;;;8.75;2.22;;;;;;;;;;5090932;28;20028;-80
2022/11/01 00:48:11;;;;;;;9.55;2.05;;;;;;;;;;5090493;28;20496;-80
2022/11/01 00:50:37;;;;;;;6.88;1.90;;;;;;;;;;5090770;28;20062;-79
2022/11/01 00:53:03;;;;;;;5.35;1.60;;;;;;;;;;5090596;28;20157;-80
2022/11/01 00:55:28;;;;;;;8.77;1.60;;;;;;;;;;5090623;28;20127;-80
2022/11/01 00:57:54;;;;;;;7.43;1.80;;;;;;;;;;5090025;28;20077;-79
2022/11/01 01:00:19;;;;;;;9.13;1.52;;;;;;;;;;5090512;28;20391;-83
2022/11/01 01:02:45;;;;;;;5.65;1.48;;;;;;;;;;5090502;28;20403;-81
2022/11/01 01:05:10;;;;;;;6.63;1.20;;;;;;;;;;5090618;28;20032;-82
2022/11/01 01:07:36;;;;;;;6.82;1.40;;;;;;;;;;5090354;28;20467;-83
2022/11/01 01:10:04;;;;;;;6.30;1.23;;;;;;;;;;5090422;28;20585;-83
2022/11/01 01:12:29;;;;;;;4.93;1.20;;;;;;;;;;5072303;28;20103;-80
2022/11/01 01:14:55;;;;;;;9.10;1.20;;;;;;;;;;5090128;28;20114;-81
2022/11/01 01:17:20;;;;;;;5.00;1.20;;;;;;;;;;5090180;28;20020;-80
2022/11/01 01:19:46;;;;;;;6.28;1.50;;;;;;;;;;5072142;28;20024;-81
2022/11/01 01:22:11;;;;;;;8.05;1.60;;;;;;;;;;5090596;28;20031;-81
2022/11/01 01:24:37;;;;;;;6.35;1.15;;;;;;;;;;5089919;28;20028;-78
2022/11/01 01:27:03;;;;;;;8.23;1.05;;;;;;;;;;5090029;28;20098;-81
2022/11/01 01:29:29;;;;;;;6.43;1.38;;;;;;;;;;5090095;28;20155;-79
2022/11/01 01:31:54;;;;;;;7.93;1.30;;;;;;;;;;5090382;28;20111;-81
2022/11/01 01:34:20;;;;;;;5.20;1.20;;;;;;;;;;5089830;28;20384;-82
2022/11/01 01:36:46;;;;;;;7.28;1.50;;;;;;;;;;5090216;28;20028;-79
2022/11/01 01:39:12;;;;;;;6.57;1.40;;;;;;;;;;5089860;28;20089;-80
2022/11/01 01:41:55;;;;;;;8.63;1.40;;;;;;;;;;5071646;28;20028;-80
2022/11/01 01:44:46;;;;;;;7.55;1.30;;;;;;;;;;5090267;28;20036;-81
2022/11/01 01:47:18;;;;;;;7.07;1.27;;;;;;;;;;5075850;28;20486;-79
2022/11/01 01:49:44;;;;;;;8.10;1.33;;;;;;;;;;5093909;28;20039;-80
2022/11/01 01:52:10;;;;;;;6.38;1.25;;;;;;;;;;5093961;28;20024;-78
2022/11/01 01:54:36;;;;;;;6.00;1.30;;;;;;;;;;5093860;28;20028;-80
2022/11/01 01:57:02;;;;;;;9.05;1.60;;;;;;;;;;5093876;28;20048;-78
2022/11/01 01:59:29;;;;;;;5.38;1.40;;;;;;;;;;5093851;28;20024;-80
2022/11/01 02:01:56;;;;;;;5.38;1.30;;;;;;;;;;5094023;28;20031;-80
2022/11/01 02:04:42;;;;;;;7.20;1.17;;;;;;;;;;5093908;28;20024;-79
2022/11/01 02:07:08;;;;;;;8.32;1.30;;;;;;;;;;5093743;28;20081;-77
2022/11/01 02:09:34;;;;;;;6.88;1.70;;;;;;;;;;5093455;28;20040;-79
2022/11/01 02:12:01;;;;;;;9.15;2.47;;;;;;;;;;5093628;28;20103;-80
2022/11/01 02:14:26;;;;;;;12.27;2.75;;;;;;;;;;5093498;28;20031;-79
2022/11/01 02:17:20;;;;;;;7.65;2.00;;;;;;;;;;5093772;28;20074;-79
2022/11/01 02:19:51;;;;;;;9.05;1.50;;;;;;;;;;5093502;28;20036;-80
2022/11/01 02:22:35;;;;;;;8.57;2.00;;;;;;;;;;5075460;28;20030;-81
2022/11/01 02:25:31;;;;;;;4.22;1.20;;;;;;;;;;5093371;28;20030;-81
2022/11/01 02:28:02;;;;;;;5.15;1.05;;;;;;;;;;5075024;28;20031;-78
2022/11/01 02:30:55;;;;;;;7.25;1.20;;;;;;;;;;5093175;28;20476;-78
2022/11/01 02:33:32;;;;;;;8.45;1.40;;;;;;;;;;5078905;28;20036;-79
2022/11/01 02:36:02;;;;;;;7.13;1.38;;;;;;;;;;5093546;28;20638;-76
2022/11/01 02:38:52;;;;;;;6.28;1.00;;;;;;;;;;5093144;28;20081;-77
2022/11/01 02:41:24;;;;;;;5.03;0.90;;;;;;;;;;5093114;28;20085;-76
2022/11/01 02:44:05;;;;;;;8.70;1.15;;;;;;;;;;5093066;28;20028;-80
2022/11/01 02:49:18;;;;;;;7.10;1.00;;;;;;;;;;5092962;28;19961;-81
2022/11/01 02:51:47;;;;;;;5.32;1.20;;;;;;;;;;5093037;28;20028;-81
2022/11/01 02:54:36;;;;;;;4.45;1.02;;;;;;;;;;5093107;28;20479;-81
2022/11/01 02:57:11;;;;;;;6.82;1.05;;;;;;;;;;5092459;28;20040;-82
2022/11/01 02:59:44;;;;;;;6.25;0.85;;;;;;;;;;5092485;28;20103;-82
2022/11/01 03:02:38;;;;;;;6.57;1.02;;;;;;;;;;5058135;28;20016;-82
2022/11/01 03:05:35;;;;;;;7.15;1.10;;;;;;;;;;5092707;28;20035;-82
2022/11/01 03:08:05;;;;;;;6.78;1.00;;;;;;;;;;5085069;28;20708;-82
2022/11/01 03:10:45;;;;;;;5.32;1.10;;;;;;;;;;5092558;28;20020;-82
2022/11/01 03:13:26;;;;;;;5.15;1.10;;;;;;;;;;5092408;28;20472;-82
2022/11/01 03:15:57;;;;;;;6.22;1.10;;;;;;;;;;5092417;28;20356;-82
2022/11/01 03:18:34;;;;;;;5.85;1.02;;;;;;;;;;5092328;28;20024;-82
2022/11/01 03:21:19;;;;;;;5.95;0.98;;;;;;;;;;5092339;28;20070;-82
2022/11/01 03:23:56;;;;;;;6.65;0.98;;;;;;;;;;5092386;28;20024;-82
2022/11/01 03:26:26;;;;;;;6.88;1.10;;;;;;;;;;5092224;28;20028;-82
2022/11/01 03:28:59;;;;;;;6.60;1.00;;;;;;;;;;5092169;28;20491;-82
2022/11/01 03:31:28;;;;;;;7.90;1.15;;;;;;;;;;5092242;28;20032;-82
2022/11/01 03:33:59;;;;;;;7.70;1.00;;;;;;;;;;5092166;28;20570;-82
2022/11/01 03:36:30;;;;;;;7.32;1.00;;;;;;;;;;5091964;28;20032;-82
2022/11/01 03:39:03;;;;;;;8.13;1.42;;;;;;;;;;5092034;28;20016;-82
2022/11/01 03:41:33;;;;;;;4.93;0.90;;;;;;;;;;5091737;28;20572;-82
2022/11/01 03:43:59;;;;;;;6.30;1.13;;;;;;;;;;5092237;28;20051;-82
2022/11/01 03:46:25;;;;;;;6.32;1.10;;;;;;;;;;5091988;28;20377;-82
2022/11/01 03:48:50;;;;;;;6.68;1.27;;;;;;;;;;5091827;28;20016;-82
2022/11/01 03:51:16;;;;;;;5.82;1.10;;;;;;;;;;5073578;28;20028;-82
2022/11/01 03:53:41;;;;;;;4.35;0.90;;;;;;;;;;5091749;28;20040;-82
2022/11/01 03:56:07;;;;;;;8.05;1.17;;;;;;;;;;5091403;28;20123;-82
2022/11/01 03:58:43;;;;;;;6.97;1.23;;;;;;;;;;5091442;28;20115;-82
2022/11/01 04:01:10;;;;;;;4.88;0.90;;;;;;;;;;5091518;28;20047;-82
2022/11/01 04:03:35;;;;;;;5.63;1.00;;;;;;;;;;5091831;28;20020;-82
2022/11/01 04:06:02;;;;;;;7.55;1.23;;;;;;;;;;5091555;28;20554;-82
2022/11/01 04:08:27;;;;;;;6.82;1.30;;;;;;;;;;5090639;28;20131;-82
2022/11/01 04:10:52;;;;;;;7.20;1.23;;;;;;;;;;5091112;28;20059;-82
2022/11/01 04:13:18;;;;;;;5.20;1.00;;;;;;;;;;5091268;28;20057;-81
2022/11/01 04:21:14;;;;;;;5.82;0.95;;;;;;;;;;5091558;28;20046;-82
2022/11/01 04:23:40;;;;;;;7.53;1.20;;;;;;;;;;5091389;28;20020;-82
2022/11/01 04:26:06;;;;;;;8.18;1.17;;;;;;;;;;5090986;28;20052;-83
2022/11/01 04:28:32;;;;;;;5.28;1.13;;;;;;;;;;5090973;28;20047;-82
2022/11/01 04:30:57;;;;;;;4.60;1.00;;;;;;;;;;5090915;28;20058;-80
2022/11/01 04:33:23;;;;;;;5.47;1.02;;;;;;;;;;5091108;28;20020;-83
2022/11/01 04:35:49;;;;;;;5.35;1.20;;;;;;;;;;5091070;28;20035;-82
2022/11/01 04:38:14;;;;;;;8.30;1.10;;;;;;;;;;5091315;28;20035;-82
2022/11/01 04:40:41;;;;;;;6.65;1.20;;;;;;;;;;5091109;28;20119;-82
2022/11/01 04:43:07;;;;;;;5.30;1.10;;;;;;;;;;5090928;28;20442;-81
2022/11/01 04:45:32;;;;;;;5.15;1.00;;;;;;;;;;5090785;28;20471;-82
2022/11/01 04:48:03;;;;;;;8.60;1.20;;;;;;;;;;5090673;28;20465;-82
2022/11/01 04:50:29;;;;;;;3.78;1.00;;;;;;;;;;5090567;28;20020;-82
2022/11/01 04:52:57;;;;;;;8.32;1.30;;;;;;;;;;5090706;28;20035;-83
2022/11/01 04:55:22;;;;;;;9.57;1.20;;;;;;;;;;5090542;28;20040;-82
2022/11/01 04:57:48;;;;;;;6.25;1.20;;;;;;;;;;5090390;28;20020;-81
2022/11/01 05:00:13;;;;;;;12.07;1.48;;;;;;;;;;5090482;28;20024;-81
2022/11/01 05:02:39;;;;;;;6.88;1.30;;;;;;;;;;5090459;28;20436;-83
2022/11/01 05:05:07;;;;;;;9.50;1.38;;;;;;;;;;5090608;28;20024;-82
2022/11/01 05:07:33;;;;;;;10.15;1.27;;;;;;;;;;5090344;28;20080;-83
2022/11/01 05:09:58;;;;;;;7.40;1.30;;;;;;;;;;5091115;28;20103;-80
2022/11/01 05:12:24;;;;;;;8.00;1.30;;;;;;;;;;5091811;28;20515;-79
2022/11/01 05:14:49;;;;;;;6.50;1.40;;;;;;;;;;5091208;28;20487;-81
2022/11/01 05:17:15;;;;;;;5.35;1.42;;;;;;;;;;5090588;28;20053;-81
2022/11/01 05:19:40;;;;;;;7.75;1.27;;;;;;;;;;5090338;28;20020;-77
2022/11/01 05:22:05;;;;;;;9.75;1.48;;;;;;;;;;5090061;28;20492;-76
2022/11/01 05:24:31;;;;;;;5.85;1.20;;;;;;;;;;5090117;28;20031;-79
2022/11/01 05:26:56;;;;;;;8.68;1.35;;;;;;;;;;5089975;28;20050;-78
2022/11/01 05:29:22;;;;;;;8.50;1.33;;;;;;;;;;5090180;28;20056;-82
2022/11/01 05:31:47;;;;;;;8.45;1.30;;;;;;;;;;5090053;28;20026;-80
2022/11/01 05:34:12;;;;;;;6.38;1.30;;;;;;;;;;5090198;28;20020;-83
2022/11/01 05:36:38;;;;;;;6.40;1.20;;;;;;;;;;5090035;28;20021;-82
2022/11/01 05:39:04;;;;;;;6.90;1.17;;;;;;;;;;5089921;28;20107;-82
2022/11/01 05:41:29;;;;;;;7.63;1.23;;;;;;;;;;5089803;28;20028;-81
2022/11/01 05:43:55;;;;;;;9.95;1.25;;;;;;;;;;5090075;28;20464;-82
2022/11/01 05:46:20;;;;;;;7.47;1.27;;;;;;;;;;5088648;28;20024;-83
2022/11/01 05:48:45;;;;;;;4.72;1.40;;;;;;;;;;5089931;28;20027;-81
2022/11/01 05:51:11;;;;;;;9.38;1.42;;;;;;;;;;5090166;28;20049;-83
2022/11/01 05:53:36;;;;;;;8.48;1.45;;;;;;;;;;5089945;28;20047;-86
2022/11/01 05:56:02;;;;;;;5.53;1.27;;;;;;;;;;5089729;28;20135;-81
2022/11/01 05:58:27;;;;;;;9.65;1.20;;;;;;;;;;5071279;28;20024;-82
2022/11/01 06:01:04;;;;;;;9.95;1.17;;;;;;;;;;5089615;28;20138;-82
2022/11/01 06:03:31;;;;;;;9.82;1.40;;;;;;;;;;5089824;28;20079;-82
2022/11/01 06:05:56;;;;;;;5.65;1.08;;;;;;;;;;5090008;28;20153;-82
2022/11/01 06:08:22;;;;;;;7.35;1.38;;;;;;;;;;5089823;28;20102;-82
2022/11/01 06:10:48;;;;;;;5.80;1.20;;;;;;;;;;5089673;28;20028;-82
2022/11/01 06:13:13;;;;;;;7.10;1.45;;;;;;;;;;5089390;28;20028;-83
2022/11/01 06:15:39;;;;;;;7.85;1.30;;;;;;;;;;5089876;28;20035;-83
2022/11/01 06:18:04;;;;;;;6.88;1.63;;;;;;;;;;5089797;28;20028;-82
2022/11/01 06:20:31;;;;;;;10.60;1.50;;;;;;;;;;5089702;28;20487;-83
2022/11/01 06:22:58;;;;;;;8.63;2.63;;;;;;;;;;5089681;28;20028;-83
2022/11/01 06:25:24;;;;;;;7.78;1.80;;;;;;;;;;5089899;28;20054;-82
2022/11/01 06:27:49;;;;;;;8.43;1.52;;;;;;;;;;5089383;28;20428;-83
2022/11/01 06:30:15;;;;;;;6.90;1.48;;;;;;;;;;5089714;28;20108;-81
2022/11/01 06:32:41;;;;;;;6.25;1.40;;;;;;;;;;5093115;28;20395;-82
2022/11/01 06:35:07;;;;;;;4.72;1.00;;;;;;;;;;5093564;28;20056;-83
2022/11/01 06:37:32;;;;;;;8.77;1.35;;;;;;;;;;5093187;28;20039;-82
2022/11/01 06:39:57;;;;;;;8.77;1.58;;;;;;;;;;5091904;28;20036;-82
2022/11/01 06:42:23;;;;;;;6.68;1.17;;;;;;;;;;5093001;28;20046;-83
2022/11/01 06:44:48;;;;;;;5.80;1.10;;;;;;;;;;5093348;28;20078;-82
2022/11/01 06:47:14;;;;;;;6.30;1.10;;;;;;;;;;5092905;28;20038;-82
2022/11/01 06:49:39;;;;;;;7.47;1.17;;;;;;;;;;5092878;28;20023;-82
2022/11/01 06:52:05;;;;;;;5.32;1.17;;;;;;;;;;5092859;28;20020;-82
2022/11/01 06:54:31;;;;;;;4.93;1.27;;;;;;;;;;5093122;28;20431;-82
2022/11/01 06:56:56;;;;;;;7.45;1.40;;;;;;;;;;5092726;28;20174;-82
2022/11/01 06:59:22;;;;;;;7.93;1.33;;;;;;;;;;5092800;28;20111;-79
2022/11/01 07:01:48;;;;;;;7.30;1.25;;;;;;;;;;5092923;28;20024;-72
2022/11/01 07:04:14;;;;;;;7.32;1.35;;;;;;;;;;5074500;28;20491;-71
2022/11/01 07:06:39;;;;;;;9.32;1.42;;;;;;;;;;5092739;28;20463;-72
2022/11/01 07:09:04;;;;;;;7.07;1.20;;;;;;;;;;5092486;28;20032;-74
2022/11/01 07:11:30;;;;;;;5.00;1.08;;;;;;;;;;5092724;28;20099;-70
2022/11/01 07:13:55;;;;;;;6.00;1.05;;;;;;;;;;5092392;28;20575;-73
2022/11/01 07:16:21;;;;;;;8.40;1.40;;;;;;;;;;5092714;28;20460;-72
2022/11/01 07:18:46;;;;;;;7.35;1.25;;;;;;;;;;5092583;28;20055;-78
2022/11/01 07:21:12;;;;;;;7.18;1.42;;;;;;;;;;5092595;28;20043;-85
2022/11/01 07:23:37;;;;;;;6.50;0.90;;;;;;;;;;5090875;28;20024;-80
2022/11/01 07:26:03;;;;;;;4.53;1.20;;;;;;;;;;5092444;28;20395;-79
2022/11/01 07:28:30;;;;;;;8.50;1.30;;;;;;;;;;5092114;28;20020;-76
2022/11/01 07:30:55;;;;;;;6.28;0.95;;;;;;;;;;5092215;28;20081;-75
2022/11/01 07:33:20;;;;;;;5.53;0.93;;;;;;;;;;5092319;28;20023;-75
2022/11/01 07:35:47;;;;;;;4.93;1.10;;;;;;;;;;5092428;28;20032;-84
2022/11/01 07:38:13;;;;;;;8.10;1.10;;;;;;;;;;5092366;28;20028;-78
2022/11/01 07:40:38;;;;;;;7.07;1.33;;;;;;;;;;5092285;28;20026;-78
2022/11/01 07:43:05;;;;;;;6.80;1.30;;;;;;;;;;5090724;28;20031;-76
2022/11/01 07:45:33;;;;;;;8.00;1.15;;;;;;;;;;5092153;28;20028;-79
2022/11/01 07:48:01;;;;;;;8.63;1.60;;;;;;;;;;5092002;28;20024;-77
2022/11/01 07:50:27;;;;;;;4.72;1.38;;;;;;;;;;5092011;28;20020;-82
2022/11/01 07:53:16;;;;;;;7.32;1.40;;;;;;;;;;5091802;28;20099;-75
2022/11/01 07:55:43;;;;;;;4.90;1.08;;;;;;;;;;5091738;28;20051;-77
2022/11/01 07:58:09;;;;;;;8.93;1.40;;;;;;;;;;5091670;28;20024;-80
2022/11/01 08:00:35;;;;;;;4.82;1.13;;;;;;;;;;5091433;28;20102;-78
2022/11/01 08:03:03;;;;;;;5.55;1.27;;;;;;;;;;5091448;28;20031;-83
2022/11/01 08:05:29;;;;;;;9.63;1.60;;;;;;;;;;5091822;28;20063;-77
2022/11/01 08:07:54;;;;;;;9.52;1.48;;;;;;;;;;5091519;28;20062;-77
2022/11/01 08:10:21;;;;;;;7.55;1.55;;;;;;;;;;5091472;28;20109;-78
2022/11/01 08:12:46;;;;;;;9.68;1.52;;;;;;;;;;5091378;28;20571;-79
2022/11/01 08:15:12;;;;;;;6.28;1.00;;;;;;;;;;5091495;28;20092;-74
2022/11/01 08:17:37;;;;;;;5.43;1.20;;;;;;;;;;5091944;28;20024;-78
2022/11/01 08:20:03;;;;;;;5.30;1.00;;;;;;;;;;5078944;28;20028;-76
2022/11/01 08:22:29;;;;;;;5.97;1.20;;;;;;;;;;5088875;28;20031;-74
2022/11/01 08:24:54;;;;;;;6.45;1.38;;;;;;;;;;5070995;28;20024;-73
2022/11/01 08:27:20;;;;;;;4.93;1.00;;;;;;;;;;5075963;28;20028;-75
2022/11/01 08:29:45;;;;;;;4.93;1.10;;;;;;;;;;5091003;28;20078;-74
2022/11/01 08:32:11;;;;;;;7.45;1.50;;;;;;;;;;5091174;28;20027;-76
2022/11/01 08:34:36;;;;;;;6.88;1.27;;;;;;;;;;5072487;28;20020;-81
2022/11/01 08:37:01;;;;;;;7.10;1.10;;;;;;;;;;5071352;28;20434;-75
2022/11/01 08:39:27;;;;;;;9.10;1.15;;;;;;;;;;5089932;28;20067;-74
2022/11/01 08:41:52;;;;;;;7.15;1.08;;;;;;;;;;5090036;28;20065;-75
2022/11/01 08:44:19;;;;;;;5.95;1.20;;;;;;;;;;5090922;28;20494;-81
2022/11/01 08:46:45;;;;;;;5.65;1.38;;;;;;;;;;5072771;28;20423;-75
2022/11/01 08:49:12;;;;;;;6.95;1.50;;;;;;;;;;5090608;28;20471;-80
2022/11/01 08:51:38;;;;;;;4.68;1.10;;;;;;;;;;5091610;28;20028;-80
2022/11/01 08:54:05;;;;;;;7.93;1.40;;;;;;;;;;5091176;28;20153;-75
2022/11/01 08:56:31;;;;;;;5.60;1.20;;;;;;;;;;5090247;28;20081;-82
2022/11/01 08:58:57;;;;;;;6.35;1.30;;;;;;;;;;5093047;28;20246;-79
2022/11/01 09:01:25;;;;;;;6.78;1.10;;;;;;;;;;5100139;28;20311;-79
2022/11/01 09:03:56;;;;;;;6.18;1.20;;;;;;;;;;5083029;28;20040;-79
2022/11/01 09:06:21;;;;;;;8.32;1.35;;;;;;;;;;5101133;28;20095;-83
2022/11/01 09:08:47;;;;;;;8.55;1.60;;;;;;;;;;5090720;28;20063;-78
2022/11/01 09:11:12;;;;;;;5.85;1.35;;;;;;;;;;5090250;28;20066;-79
2022/11/01 09:13:38;;;;;;;5.70;1.05;;;;;;;;;;5090163;28;20067;-83
2022/11/01 09:16:05;;;;;;;6.03;1.20;;;;;;;;;;5077664;28;20378;-81
2022/11/01 09:18:31;;;;;;;6.57;1.30;;;;;;;;;;5087878;28;20059;-80
2022/11/01 09:20:56;;;;;;;8.77;1.52;;;;;;;;;;5075429;28;20029;-81
2022/11/01 09:23:22;;;;;;;4.78;1.02;;;;;;;;;;5090693;28;20020;-73
2022/11/01 09:25:47;;;;;;;9.27;1.30;;;;;;;;;;5084152;28;20387;-74
2022/11/01 09:28:13;;;;;;;7.43;1.15;;;;;;;;;;5077860;28;20020;-78
2022/11/01 09:30:39;;;;;;;6.20;1.30;;;;;;;;;;5088378;28;20039;-78
2022/11/01 09:33:06;;;;;;;8.88;1.50;;;;;;;;;;5070895;28;20400;-79
2022/11/01 09:35:32;;;;;;;5.10;1.42;;;;;;;;;;5089829;28;20054;-79
2022/11/01 09:37:58;;;;;;;6.78;1.42;;;;;;;;;;5074554;28;20031;-78
2022/11/01 09:40:27;;;;;;;6.72;1.33;;;;;;;;;;5093039;28;20039;-77
2022/11/01 09:42:53;;;;;;;5.90;1.58;;;;;;;;;;5089959;28;20097;-77
2022/11/01 09:45:22;;;;;;;5.20;1.15;;;;;;;;;;5089680;28;20410;-75
2022/11/01 09:47:51;;;;;;;7.95;1.38;;;;;;;;;;5094660;28;20135;-76
2022/11/01 09:50:32;;;;;;;7.28;1.50;;;;;;;;;;5091628;28;20116;-73
2022/11/01 09:52:59;;;;;;;;;;;;;;;;;;5091155;28;20458;-75
2022/11/01 09:55:42;;;;;;;9.65;1.35;;;;;;;;;;5090720;28;19965;-75
2022/11/01 09:58:34;;;;;;;7.95;1.60;;;;;;;;;;5089831;28;20040;-76
2022/11/01 10:01:22;;;;;;;4.95;1.17;;;;;;;;;;5089415;28;20039;-80
2022/11/01 10:04:00;;;;;;;8.25;1.20;;;;;;;;;;5093492;28;20020;-79
2022/11/01 10:06:45;;;;;;;10.43;1.60;;;;;;;;;;5092298;28;20492;-79
2022/11/01 10:09:28;;;;;;;9.32;1.40;;;;;;;;;;5094986;28;20024;-84
2022/11/01 10:12:23;;;;;;;7.05;1.60;;;;;;;;;;5077054;28;20090;-78
2022/11/01 10:15:10;;;;;;;6.18;1.33;;;;;;;;;;5075732;28;20034;-78
2022/11/01 10:17:53;;;;;;;6.20;1.10;;;;;;;;;;5075539;28;20066;-80
2022/11/01 10:20:27;;;;;;;9.07;1.35;;;;;;;;;;5093440;28;20035;-78
2022/11/01 10:22:53;;;;;;;7.63;1.20;;;;;;;;;;5093793;28;20033;-79
2022/11/01 10:25:25;;;;;;;5.13;1.30;;;;;;;;;;5092253;28;20035;-80
2022/11/01 10:27:56;;;;;;;7.53;1.20;;;;;;;;;;5093688;28;20036;-75
2022/11/01 10:30:22;;;;;;;9.40;1.30;;;;;;;;;;5093300;28;20028;-78
2022/11/01 10:33:00;;;;;;;7.45;1.23;;;;;;;;;;5091956;28;20185;-77
2022/11/01 10:35:37;;;;;;;8.70;1.60;;;;;;;;;;5093025;28;20020;-78
2022/11/01 10:38:14;;;;;;;10.80;1.40;;;;;;;;;;5093335;28;20027;-76
2022/11/01 10:40:50;;;;;;;6.85;1.42;;;;;;;;;;5092941;28;20024;-77
2022/11/01 10:43:20;;;;;;;9.32;1.30;;;;;;;;;;5093222;28;20016;-77
2022/11/01 10:45:48;;;;;;;7.10;1.50;;;;;;;;;;5094574;28;20024;-77
2022/11/01 10:48:31;;;;;;;7.03;1.55;;;;;;;;;;5093222;28;20024;-79
2022/11/01 10:50:59;;;;;;;8.15;1.80;;;;;;;;;;5069967;28;20495;-75
2022/11/01 10:53:27;;;;;;;8.77;1.55;;;;;;;;;;5075040;28;20028;-77
2022/11/01 10:56:01;;;;;;;7.18;1.25;;;;;;;;;;5074445;28;20144;-78
2022/11/01 10:59:00;;;;;;;7.03;1.40;;;;;;;;;;5092965;28;20023;-76
2022/11/01 11:01:28;;;;;;;8.98;1.60;;;;;;;;;;5092528;28;20024;-74
2022/11/01 11:03:56;;;;;;;10.90;1.42;;;;;;;;;;5093002;28;20474;-73
2022/11/01 11:06:21;;;;;;;9.90;1.48;;;;;;;;;;5077058;28;20040;-73
2022/11/01 11:08:50;;;;;;;8.73;1.13;;;;;;;;;;5093604;28;20017;-75
2022/11/01 11:11:17;;;;;;;9.30;1.52;;;;;;;;;;5074149;28;20016;-77
2022/11/01 11:13:53;;;;;;;8.05;1.30;;;;;;;;;;5093278;28;20333;-77
2022/11/01 11:16:45;;;;;;;7.65;1.52;;;;;;;;;;5092384;28;20039;-73
2022/11/01 11:19:14;;;;;;;8.35;1.70;;;;;;;;;;5094826;28;20032;-76
2022/11/01 11:21:43;;;;;;;9.93;1.63;;;;;;;;;;5097989;28;20039;-76
2022/11/01 11:24:21;;;;;;;9.68;1.58;;;;;;;;;;5101648;28;20102;-82
2022/11/01 11:26:53;;;;;;;12.50;1.67;;;;;;;;;;5098674;28;20028;-75
2022/11/01 11:29:34;;;;;;;8.25;1.40;;;;;;;;;;5097077;28;20145;-74
2022/11/01 11:32:00;;;;;;;7.70;1.80;;;;;;;;;;5092087;28;20108;-74
2022/11/01 11:34:29;;;;;;;7.40;1.45;;;;;;;;;;5092539;28;20031;-74
2022/11/01 11:36:56;;;;;;;7.78;1.58;;;;;;;;;;5093191;28;20499;-74
2022/11/01 11:39:22;;;;;;;9.73;1.58;;;;;;;;;;5074122;28;20028;-75
2022/11/01 11:41:48;;;;;;;5.70;1.50;;;;;;;;;;5095227;28;20087;-77
2022/11/01 11:44:33;;;;;;;7.28;1.25;;;;;;;;;;5095141;28;20105;-74
2022/11/01 11:46:59;;;;;;;8.15;1.45;;;;;;;;;;5054004;28;20036;-82
2022/11/01 11:49:26;;;;;;;7.78;1.40;;;;;;;;;;5094213;28;20526;-77
2022/11/01 11:51:52;;;;;;;6.50;1.13;;;;;;;;;;5094130;28;20065;-77
2022/11/01 11:54:27;;;;;;;9.57;1.40;;;;;;;;;;5092675;28;20546;-77
2022/11/01 11:57:09;;;;;;;8.45;1.27;;;;;;;;;;5091337;28;20446;-77
2022/11/01 11:59:36;;;;;;;7.45;1.40;;;;;;;;;;5092576;28;20059;-76
2022/11/01 12:02:04;;;;;;;7.15;1.45;;;;;;;;;;5091417;28;20032;-78
2022/11/01 12:04:44;;;;;;;8.77;1.58;;;;;;;;;;5091659;28;20107;-77
2022/11/01 12:07:34;;;;;;;4.75;1.30;;;;;;;;;;5091434;28;20032;-75
2022/11/01 12:10:03;;;;;;;8.90;1.60;;;;;;;;;;5092365;28;20036;-74
2022/11/01 12:12:31;;;;;;;8.43;1.40;;;;;;;;;;5090920;28;20406;-78
2022/11/01 12:14:59;;;;;;;6.75;1.38;;;;;;;;;;5094730;28;20032;-77
2022/11/01 12:17:35;;;;;;;8.77;1.60;;;;;;;;;;5091203;28;20028;-79
2022/11/01 12:20:19;;;;;;;7.45;1.27;;;;;;;;;;5095499;28;20119;-82
2022/11/01 12:23:10;;;;;;;13.18;1.90;;;;;;;;;;5096122;28;20091;-79
2022/11/01 12:25:37;;;;;;;5.03;1.42;;;;;;;;;;5088060;28;20131;-80
2022/11/01 12:28:34;;;;;;;7.20;1.52;;;;;;;;;;5092813;28;20071;-74
2022/11/01 12:31:06;;;;;;;5.13;1.40;;;;;;;;;;5093161;28;20058;-75
2022/11/01 12:33:39;;;;;;;9.45;1.50;;;;;;;;;;5099115;28;20024;-73
2022/11/01 12:36:06;;;;;;;10.48;1.80;;;;;;;;;;5100767;28;20374;-73
2022/11/01 12:39:11;;;;;;;5.28;1.27;;;;;;;;;;5099564;28;20020;-77
2022/11/01 12:41:51;;;;;;;7.55;1.40;;;;;;;;;;5002655;28;20041;-74
2022/11/01 12:44:32;;;;;;;6.40;1.20;;;;;;;;;;4999399;28;20029;-73
2022/11/01 12:47:26;;;;;;;8.60;1.65;;;;;;;;;;5064318;28;20060;-74
2022/11/01 12:50:16;;;;;;;4.82;1.17;;;;;;;;;;5089449;28;20044;-75
2022/11/01 12:53:05;;;;;;;9.25;1.40;;;;;;;;;;5095923;28;20087;-74
2022/11/01 12:55:38;;;;;;;9.68;1.55;;;;;;;;;;5098772;28;20052;-73
2022/11/01 12:58:09;;;;;;;8.02;1.50;;;;;;;;;;5092101;28;20024;-73
2022/11/01 13:00:40;;;;;;;;;;;;;;;;;;5096234;28;20060;-74
2022/11/01 13:03:53;;;;;;;10.32;1.35;;;;;;;;;;5090452;28;19916;-75
2022/11/01 13:06:42;;;;;;;6.45;1.20;;;;;;;;;;5008760;28;20029;-73
2022/11/01 13:09:36;;;;;;;4.93;1.27;;;;;;;;;;5092384;28;20044;-74
2022/11/01 13:12:06;;;;;;;7.80;1.30;;;;;;;;;;5077259;28;20067;-73
2022/11/01 13:14:38;;;;;;;7.55;1.10;;;;;;;;;;5092960;28;20031;-74
2022/11/01 13:17:15;;;;;;;6.25;1.20;;;;;;;;;;5090816;28;20039;-74
2022/11/01 13:20:16;;;;;;;8.40;1.35;;;;;;;;;;5089348;28;20486;-73
2022/11/01 13:23:05;;;;;;;4.10;0.90;;;;;;;;;;5074652;28;20039;-73
2022/11/01 13:25:40;;;;;;;5.70;1.13;;;;;;;;;;5073283;28;20055;-74
2022/11/01 13:28:37;;;;;;;7.03;1.20;;;;;;;;;;5089828;28;20074;-75
2022/11/01 13:31:26;;;;;;;5.75;1.27;;;;;;;;;;5091881;28;20038;-75
2022/11/01 13:34:03;;;;;;;6.50;1.40;;;;;;;;;;5090954;28;20036;-75
2022/11/01 13:36:55;;;;;;;7.60;1.52;;;;;;;;;;5091283;28;20080;-74
2022/11/01 13:40:02;;;;;;;7.97;1.70;;;;;;;;;;5096652;28;20491;-75
2022/11/01 13:42:35;;;;;;;7.57;1.63;;;;;;;;;;5010974;28;20036;-74
2022/11/01 13:45:06;;;;;;;5.97;1.00;;;;;;;;;;5009103;28;20030;-74
2022/11/01 13:47:46;;;;;;;5.93;1.20;;;;;;;;;;5031220;28;20032;-76
2022/11/01 13:50:17;;;;;;;;;;;;;;;;;;5094041;28;20052;-73
2022/11/01 13:53:14;;;;;;;7.85;1.60;;;;;;;;;;5089288;28;20430;-74
2022/11/01 13:55:52;;;;;;;6.03;1.30;;;;;;;;;;5086009;28;20075;-74
2022/11/01 13:58:20;;;;;;;5.40;1.23;;;;;;;;;;5076039;28;20043;-75
2022/11/01 14:00:48;;;;;;;6.53;1.23;;;;;;;;;;5096604;28;20031;-71
2022/11/01 14:03:28;;;;;;;9.80;1.50;;;;;;;;;;5075433;28;20039;-75
2022/11/01 14:06:10;;;;;;;7.10;1.42;;;;;;;;;;5093124;28;20099;-74
2022/11/01 14:08:40;;;;;;;7.57;1.45;;;;;;;;;;5096613;28;20020;-73
2022/11/01 14:11:09;;;;;;;7.13;1.45;;;;;;;;;;5090970;28;20016;-74
2022/11/01 14:13:44;;;;;;;6.45;1.30;;;;;;;;;;5093211;28;20032;-74
2022/11/01 14:16:12;;;;;;;7.38;1.20;;;;;;;;;;5060430;28;20033;-74
2022/11/01 14:19:01;;;;;;;6.15;1.20;;;;;;;;;;5070496;28;20029;-75
2022/11/01 14:21:38;;;;;;;5.20;1.15;;;;;;;;;;5071101;28;20021;-74
2022/11/01 14:24:27;;;;;;;5.32;1.25;;;;;;;;;;5052026;28;20040;-74
2022/11/01 14:26:55;;;;;;;6.93;1.50;;;;;;;;;;5073211;28;20020;-73
2022/11/01 14:29:21;;;;;;;6.68;1.45;;;;;;;;;;5070398;28;20029;-76
2022/11/01 14:31:51;;;;;;;6.72;1.25;;;;;;;;;;5051575;28;20024;-75
2022/11/01 14:34:31;;;;;;;6.40;1.40;;;;;;;;;;5050982;28;20035;-74
2022/11/01 14:37:03;;;;;;;5.13;1.42;;;;;;;;;;5070315;28;20031;-75
2022/11/01 14:39:38;;;;;;;5.25;1.02;;;;;;;;;;5053667;28;20141;-74
2022/11/01 14:42:07;;;;;;;5.15;1.10;;;;;;;;;;5070485;28;20028;-74
2022/11/01 14:44:37;;;;;;;4.78;1.10;;;;;;;;;;5077122;28;20098;-75
2022/11/01 14:47:17;;;;;;;6.43;1.20;;;;;;;;;;5076391;28;20029;-75
2022/11/01 14:49:43;;;;;;;6.22;1.30;;;;;;;;;;5076599;28;20017;-74
2022/11/01 14:52:21;;;;;;;8.75;1.63;;;;;;;;;;5076647;28;20028;-74
2022/11/01 14:55:02;;;;;;;5.45;1.27;;;;;;;;;;5075407;28;20032;-74
2022/11/01 14:57:31;;;;;;;5.95;1.00;;;;;;;;;;5080922;28;20163;-74
2022/11/01 14:59:57;;;;;;;6.95;1.25;;;;;;;;;;5075788;28;20067;-78
2022/11/01 15:02:25;;;;;;;6.32;1.08;;;;;;;;;;5062820;28;20088;-75
2022/11/01 15:04:57;;;;;;;6.35;1.10;;;;;;;;;;5081303;28;20038;-81
2022/11/01 15:07:28;;;;;;;6.22;1.25;;;;;;;;;;5077780;28;20032;-81
2022/11/01 15:09:58;;;;;;;4.57;1.02;;;;;;;;;;5077158;28;20032;-78
2022/11/01 15:12:27;;;;;;;4.40;1.05;;;;;;;;;;5081179;28;20028;-76
2022/11/01 15:14:56;;;;;;;5.82;1.17;;;;;;;;;;5074081;28;20036;-83